sensor_id;sensor_type;location;lat;lon;timestamp;P1;durP1;ratioP1;P2;durP2;ratioP2
15938;SDS011;8068;51.322;9.450;2023-10-08T00:01:09;13.20;;;4.43;;
15938;SDS011;8068;51.322;9.450;2023-10-08T00:03:43;10.93;;;4.67;;
15938;SDS011;8068;51.322;9.450;2023-10-08T00:06:17;17.53;;;6.20;;
15938;SDS011;8068;51.322;9.450;2023-10-08T00:08:50;9.50;;;4.80;;
15938;SDS011;8068;51.322;9.450;2023-10-08T00:11:17;7.40;;;4.23;;
15938;SDS011;8068;51.322;9.450;2023-10-08T00:13:45;8.87;;;4.67;;
15938;SDS011;8068;51.322;9.450;2023-10-08T00:16:16;8.13;;;4.43;;
15938;SDS011;8068;51.322;9.450;2023-10-08T00:18:44;12.00;;;5.00;;
15938;SDS011;8068;51.322;9.450;2023-10-08T00:21:19;9.17;;;3.87;;
15938;SDS011;8068;51.322;9.450;2023-10-08T00:23:53;11.73;;;5.27;;
15938;SDS011;8068;51.322;9.450;2023-10-08T00:26:24;5.00;;;4.50;;
15938;SDS011;8068;51.322;9.450;2023-10-08T00:28:55;8.80;;;4.67;;
15938;SDS011;8068;51.322;9.450;2023-10-08T00:31:23;5.30;;;4.30;;
15938;SDS011;8068;51.322;9.450;2023-10-08T00:33:57;9.50;;;4.70;;
15938;SDS011;8068;51.322;9.450;2023-10-08T00:36:24;11.13;;;5.00;;
15938;SDS011;8068;51.322;9.450;2023-10-08T00:38:51;8.27;;;5.20;;
15938;SDS011;8068;51.322;9.450;2023-10-08T00:41:21;10.67;;;5.20;;
15938;SDS011;8068;51.322;9.450;2023-10-08T00:43:48;10.50;;;5.40;;
15938;SDS011;8068;51.322;9.450;2023-10-08T00:46:16;16.07;;;5.70;;
15938;SDS011;8068;51.322;9.450;2023-10-08T00:49:02;13.03;;;6.03;;
15938;SDS011;8068;51.322;9.450;2023-10-08T00:51:55;12.40;;;5.13;;
15938;SDS011;8068;51.322;9.450;2023-10-08T00:54:46;11.37;;;4.97;;
15938;SDS011;8068;51.322;9.450;2023-10-08T00:57:31;14.30;;;5.93;;
15938;SDS011;8068;51.322;9.450;2023-10-08T01:00:03;19.37;;;5.80;;
15938;SDS011;8068;51.322;9.450;2023-10-08T01:02:32;10.47;;;5.73;;
15938;SDS011;8068;51.322;9.450;2023-10-08T01:05:13;10.70;;;5.73;;
15938;SDS011;8068;51.322;9.450;2023-10-08T01:07:45;12.17;;;5.70;;
15938;SDS011;8068;51.322;9.450;2023-10-08T01:10:15;8.20;;;5.47;;
15938;SDS011;8068;51.322;9.450;2023-10-08T01:12:47;12.87;;;6.03;;
15938;SDS011;8068;51.322;9.450;2023-10-08T01:15:23;15.63;;;6.40;;
15938;SDS011;8068;51.322;9.450;2023-10-08T01:17:51;16.00;;;7.40;;
15938;SDS011;8068;51.322;9.450;2023-10-08T01:20:24;12.37;;;6.23;;
15938;SDS011;8068;51.322;9.450;2023-10-08T01:23:04;10.97;;;6.07;;
15938;SDS011;8068;51.322;9.450;2023-10-08T01:25:31;12.97;;;6.07;;
15938;SDS011;8068;51.322;9.450;2023-10-08T01:27:58;13.00;;;6.33;;
15938;SDS011;8068;51.322;9.450;2023-10-08T01:30:35;11.33;;;6.30;;
15938;SDS011;8068;51.322;9.450;2023-10-08T01:33:08;11.50;;;6.23;;
15938;SDS011;8068;51.322;9.450;2023-10-08T01:35:39;11.50;;;6.60;;
15938;SDS011;8068;51.322;9.450;2023-10-08T01:38:06;14.53;;;6.70;;
15938;SDS011;8068;51.322;9.450;2023-10-08T01:40:35;9.23;;;6.60;;
15938;SDS011;8068;51.322;9.450;2023-10-08T01:43:01;18.43;;;7.40;;
15938;SDS011;8068;51.322;9.450;2023-10-08T01:45:31;12.47;;;6.80;;
15938;SDS011;8068;51.322;9.450;2023-10-08T01:47:58;10.40;;;6.90;;
15938;SDS011;8068;51.322;9.450;2023-10-08T01:50:25;14.10;;;7.30;;
15938;SDS011;8068;51.322;9.450;2023-10-08T01:52:54;14.43;;;7.20;;
15938;SDS011;8068;51.322;9.450;2023-10-08T01:55:22;14.33;;;6.77;;
15938;SDS011;8068;51.322;9.450;2023-10-08T01:57:49;14.53;;;7.90;;
15938;SDS011;8068;51.322;9.450;2023-10-08T02:00:20;16.50;;;7.30;;
15938;SDS011;8068;51.322;9.450;2023-10-08T02:02:51;17.23;;;7.70;;
15938;SDS011;8068;51.322;9.450;2023-10-08T02:05:18;13.83;;;6.87;;
15938;SDS011;8068;51.322;9.450;2023-10-08T02:07:48;15.00;;;7.97;;
15938;SDS011;8068;51.322;9.450;2023-10-08T02:10:15;26.23;;;8.90;;
15938;SDS011;8068;51.322;9.450;2023-10-08T02:12:41;15.40;;;7.40;;
15938;SDS011;8068;51.322;9.450;2023-10-08T02:15:09;17.03;;;7.00;;
15938;SDS011;8068;51.322;9.450;2023-10-08T02:17:38;14.63;;;7.20;;
15938;SDS011;8068;51.322;9.450;2023-10-08T02:20:05;13.50;;;7.47;;
15938;SDS011;8068;51.322;9.450;2023-10-08T02:22:37;21.33;;;7.70;;
15938;SDS011;8068;51.322;9.450;2023-10-08T02:25:05;14.60;;;8.40;;
15938;SDS011;8068;51.322;9.450;2023-10-08T02:27:32;16.93;;;8.20;;
15938;SDS011;8068;51.322;9.450;2023-10-08T02:30:00;27.53;;;8.77;;
15938;SDS011;8068;51.322;9.450;2023-10-08T02:32:29;22.13;;;8.90;;
15938;SDS011;8068;51.322;9.450;2023-10-08T02:34:58;21.23;;;8.83;;
15938;SDS011;8068;51.322;9.450;2023-10-08T02:37:25;16.00;;;7.97;;
15938;SDS011;8068;51.322;9.450;2023-10-08T02:39:52;18.07;;;7.90;;
15938;SDS011;8068;51.322;9.450;2023-10-08T02:42:19;22.00;;;9.30;;
15938;SDS011;8068;51.322;9.450;2023-10-08T02:44:46;19.23;;;9.70;;
15938;SDS011;8068;51.322;9.450;2023-10-08T02:47:13;19.33;;;8.50;;
15938;SDS011;8068;51.322;9.450;2023-10-08T02:49:43;21.00;;;9.50;;
15938;SDS011;8068;51.322;9.450;2023-10-08T02:52:11;24.80;;;9.80;;
15938;SDS011;8068;51.322;9.450;2023-10-08T02:54:39;24.23;;;9.67;;
15938;SDS011;8068;51.322;9.450;2023-10-08T02:57:06;30.93;;;9.37;;
15938;SDS011;8068;51.322;9.450;2023-10-08T02:59:40;22.83;;;9.47;;
15938;SDS011;8068;51.322;9.450;2023-10-08T03:02:08;23.07;;;11.03;;
15938;SDS011;8068;51.322;9.450;2023-10-08T03:04:49;22.27;;;11.00;;
15938;SDS011;8068;51.322;9.450;2023-10-08T03:07:19;21.50;;;9.40;;
15938;SDS011;8068;51.322;9.450;2023-10-08T03:09:52;21.37;;;10.03;;
15938;SDS011;8068;51.322;9.450;2023-10-08T03:12:55;18.40;;;9.43;;
15938;SDS011;8068;51.322;9.450;2023-10-08T03:15:21;25.83;;;10.80;;
15938;SDS011;8068;51.322;9.450;2023-10-08T03:17:55;22.70;;;9.27;;
15938;SDS011;8068;51.322;9.450;2023-10-08T03:20:24;15.30;;;9.20;;
15938;SDS011;8068;51.322;9.450;2023-10-08T03:23:10;14.30;;;8.53;;
15938;SDS011;8068;51.322;9.450;2023-10-08T03:25:54;23.17;;;9.70;;
15938;SDS011;8068;51.322;9.450;2023-10-08T03:28:28;23.07;;;10.53;;
15938;SDS011;8068;51.322;9.450;2023-10-08T03:30:56;21.03;;;11.00;;
15938;SDS011;8068;51.322;9.450;2023-10-08T03:33:31;18.67;;;9.47;;
15938;SDS011;8068;51.322;9.450;2023-10-08T03:36:02;18.00;;;9.40;;
15938;SDS011;8068;51.322;9.450;2023-10-08T03:38:47;20.10;;;10.40;;
15938;SDS011;8068;51.322;9.450;2023-10-08T03:41:22;22.97;;;10.80;;
15938;SDS011;8068;51.322;9.450;2023-10-08T03:43:56;20.20;;;11.20;;
15938;SDS011;8068;51.322;9.450;2023-10-08T03:46:32;26.27;;;10.93;;
15938;SDS011;8068;51.322;9.450;2023-10-08T03:49:06;26.50;;;11.80;;
15938;SDS011;8068;51.322;9.450;2023-10-08T03:51:41;17.57;;;9.80;;
15938;SDS011;8068;51.322;9.450;2023-10-08T03:54:08;14.97;;;10.17;;
15938;SDS011;8068;51.322;9.450;2023-10-08T03:56:35;17.90;;;9.40;;
15938;SDS011;8068;51.322;9.450;2023-10-08T03:59:08;20.20;;;10.13;;
15938;SDS011;8068;51.322;9.450;2023-10-08T04:01:41;18.03;;;10.07;;
15938;SDS011;8068;51.322;9.450;2023-10-08T04:04:09;16.57;;;10.13;;
15938;SDS011;8068;51.322;9.450;2023-10-08T04:06:41;22.40;;;10.70;;
15938;SDS011;8068;51.322;9.450;2023-10-08T04:09:16;19.00;;;11.37;;
15938;SDS011;8068;51.322;9.450;2023-10-08T04:11:47;27.30;;;11.17;;
15938;SDS011;8068;51.322;9.450;2023-10-08T04:14:14;22.80;;;11.23;;
15938;SDS011;8068;51.322;9.450;2023-10-08T04:16:51;24.80;;;10.60;;
15938;SDS011;8068;51.322;9.450;2023-10-08T04:19:19;22.17;;;11.20;;
15938;SDS011;8068;51.322;9.450;2023-10-08T04:21:47;14.80;;;10.70;;
15938;SDS011;8068;51.322;9.450;2023-10-08T04:24:24;19.00;;;11.27;;
15938;SDS011;8068;51.322;9.450;2023-10-08T04:26:57;24.60;;;11.00;;
15938;SDS011;8068;51.322;9.450;2023-10-08T04:29:25;20.80;;;11.30;;
15938;SDS011;8068;51.322;9.450;2023-10-08T04:31:53;11.53;;;8.00;;
15938;SDS011;8068;51.322;9.450;2023-10-08T04:34:34;13.27;;;7.40;;
15938;SDS011;8068;51.322;9.450;2023-10-08T04:37:02;5.03;;;4.33;;
15938;SDS011;8068;51.322;9.450;2023-10-08T04:39:39;3.30;;;3.10;;
15938;SDS011;8068;51.322;9.450;2023-10-08T04:42:13;4.13;;;2.87;;
15938;SDS011;8068;51.322;9.450;2023-10-08T04:44:40;2.63;;;2.20;;
15938;SDS011;8068;51.322;9.450;2023-10-08T04:47:07;5.83;;;1.57;;
15938;SDS011;8068;51.322;9.450;2023-10-08T04:49:36;7.27;;;1.20;;
15938;SDS011;8068;51.322;9.450;2023-10-08T04:52:12;1.10;;;0.80;;
15938;SDS011;8068;51.322;9.450;2023-10-08T04:54:42;1.20;;;1.00;;
15938;SDS011;8068;51.322;9.450;2023-10-08T04:57:18;1.87;;;0.80;;
15938;SDS011;8068;51.322;9.450;2023-10-08T04:59:49;2.80;;;0.90;;
15938;SDS011;8068;51.322;9.450;2023-10-08T05:02:17;1.90;;;0.70;;
15938;SDS011;8068;51.322;9.450;2023-10-08T05:05:11;1.63;;;0.50;;
15938;SDS011;8068;51.322;9.450;2023-10-08T05:07:38;3.13;;;0.53;;
15938;SDS011;8068;51.322;9.450;2023-10-08T05:10:14;4.47;;;0.60;;
15938;SDS011;8068;51.322;9.450;2023-10-08T05:12:50;1.00;;;0.43;;
15938;SDS011;8068;51.322;9.450;2023-10-08T05:15:32;5.50;;;0.67;;
15938;SDS011;8068;51.322;9.450;2023-10-08T05:18:04;1.00;;;0.60;;
15938;SDS011;8068;51.322;9.450;2023-10-08T05:21:00;2.00;;;0.43;;
15938;SDS011;8068;51.322;9.450;2023-10-08T05:23:43;1.50;;;0.43;;
15938;SDS011;8068;51.322;9.450;2023-10-08T05:26:20;1.67;;;0.50;;
15938;SDS011;8068;51.322;9.450;2023-10-08T05:28:57;1.00;;;0.50;;
15938;SDS011;8068;51.322;9.450;2023-10-08T05:31:28;1.57;;;0.60;;
15938;SDS011;8068;51.322;9.450;2023-10-08T05:34:20;1.70;;;0.80;;
15938;SDS011;8068;51.322;9.450;2023-10-08T05:36:59;1.10;;;1.00;;
15938;SDS011;8068;51.322;9.450;2023-10-08T05:39:26;1.20;;;1.10;;
15938;SDS011;8068;51.322;9.450;2023-10-08T05:42:01;1.23;;;1.13;;
15938;SDS011;8068;51.322;9.450;2023-10-08T05:44:42;2.13;;;1.10;;
15938;SDS011;8068;51.322;9.450;2023-10-08T05:47:28;1.97;;;1.20;;
15938;SDS011;8068;51.322;9.450;2023-10-08T05:50:01;1.30;;;1.20;;
15938;SDS011;8068;51.322;9.450;2023-10-08T05:52:44;2.40;;;1.70;;
15938;SDS011;8068;51.322;9.450;2023-10-08T05:55:25;1.30;;;1.20;;
15938;SDS011;8068;51.322;9.450;2023-10-08T05:58:00;1.40;;;1.30;;
15938;SDS011;8068;51.322;9.450;2023-10-08T06:00:56;1.83;;;1.73;;
15938;SDS011;8068;51.322;9.450;2023-10-08T06:03:34;2.00;;;1.90;;
15938;SDS011;8068;51.322;9.450;2023-10-08T06:06:02;1.60;;;1.50;;
15938;SDS011;8068;51.322;9.450;2023-10-08T06:08:50;1.40;;;1.30;;
15938;SDS011;8068;51.322;9.450;2023-10-08T06:11:36;2.03;;;1.80;;
15938;SDS011;8068;51.322;9.450;2023-10-08T06:14:26;1.87;;;1.77;;
15938;SDS011;8068;51.322;9.450;2023-10-08T06:17:08;1.93;;;1.83;;
15938;SDS011;8068;51.322;9.450;2023-10-08T06:20:01;1.80;;;1.70;;
15938;SDS011;8068;51.322;9.450;2023-10-08T06:22:36;1.50;;;1.40;;
15938;SDS011;8068;51.322;9.450;2023-10-08T06:25:03;1.70;;;1.60;;
15938;SDS011;8068;51.322;9.450;2023-10-08T06:27:44;2.53;;;1.33;;
15938;SDS011;8068;51.322;9.450;2023-10-08T06:30:12;1.10;;;1.00;;
15938;SDS011;8068;51.322;9.450;2023-10-08T06:32:43;1.10;;;1.00;;
15938;SDS011;8068;51.322;9.450;2023-10-08T06:35:14;1.17;;;1.07;;
15938;SDS011;8068;51.322;9.450;2023-10-08T06:37:45;1.10;;;0.70;;
15938;SDS011;8068;51.322;9.450;2023-10-08T06:40:12;1.00;;;0.50;;
15938;SDS011;8068;51.322;9.450;2023-10-08T06:42:59;1.83;;;0.50;;
15938;SDS011;8068;51.322;9.450;2023-10-08T06:45:39;1.00;;;0.40;;
15938;SDS011;8068;51.322;9.450;2023-10-08T06:48:06;0.97;;;0.30;;
15938;SDS011;8068;51.322;9.450;2023-10-08T06:50:33;1.00;;;0.40;;
15938;SDS011;8068;51.322;9.450;2023-10-08T06:53:04;1.00;;;0.50;;
15938;SDS011;8068;51.322;9.450;2023-10-08T06:55:34;1.00;;;0.40;;
15938;SDS011;8068;51.322;9.450;2023-10-08T06:58:04;0.90;;;0.30;;
15938;SDS011;8068;51.322;9.450;2023-10-08T07:00:41;1.07;;;0.60;;
15938;SDS011;8068;51.322;9.450;2023-10-08T07:03:16;1.00;;;0.50;;
15938;SDS011;8068;51.322;9.450;2023-10-08T07:05:45;1.73;;;0.30;;
15938;SDS011;8068;51.322;9.450;2023-10-08T07:08:21;2.60;;;0.50;;
15938;SDS011;8068;51.322;9.450;2023-10-08T07:10:50;4.90;;;0.50;;
15938;SDS011;8068;51.322;9.450;2023-10-08T07:13:18;1.00;;;0.50;;
15938;SDS011;8068;51.322;9.450;2023-10-08T07:15:48;1.03;;;0.47;;
15938;SDS011;8068;51.322;9.450;2023-10-08T07:18:16;1.00;;;0.40;;
15938;SDS011;8068;51.322;9.450;2023-10-08T07:20:52;1.10;;;0.50;;
15938;SDS011;8068;51.322;9.450;2023-10-08T07:23:28;2.50;;;0.50;;
15938;SDS011;8068;51.322;9.450;2023-10-08T07:26:02;1.60;;;0.50;;
15938;SDS011;8068;51.322;9.450;2023-10-08T07:28:38;1.40;;;0.90;;
15938;SDS011;8068;51.322;9.450;2023-10-08T07:31:14;1.63;;;0.50;;
15938;SDS011;8068;51.322;9.450;2023-10-08T07:33:53;2.50;;;0.70;;
15938;SDS011;8068;51.322;9.450;2023-10-08T07:36:23;2.50;;;0.63;;
15938;SDS011;8068;51.322;9.450;2023-10-08T07:38:51;1.10;;;0.50;;
15938;SDS011;8068;51.322;9.450;2023-10-08T07:41:18;1.53;;;0.50;;
15938;SDS011;8068;51.322;9.450;2023-10-08T07:43:49;2.90;;;1.03;;
15938;SDS011;8068;51.322;9.450;2023-10-08T07:46:22;2.53;;;0.50;;
15938;SDS011;8068;51.322;9.450;2023-10-08T07:48:49;3.00;;;1.03;;
15938;SDS011;8068;51.322;9.450;2023-10-08T07:51:17;2.23;;;1.53;;
15938;SDS011;8068;51.322;9.450;2023-10-08T07:53:48;1.93;;;1.00;;
15938;SDS011;8068;51.322;9.450;2023-10-08T07:56:23;5.83;;;0.90;;
15938;SDS011;8068;51.322;9.450;2023-10-08T07:58:53;1.63;;;0.70;;
15938;SDS011;8068;51.322;9.450;2023-10-08T08:01:23;1.17;;;0.63;;
15938;SDS011;8068;51.322;9.450;2023-10-08T08:03:53;1.43;;;0.87;;
15938;SDS011;8068;51.322;9.450;2023-10-08T08:06:21;2.93;;;0.90;;
15938;SDS011;8068;51.322;9.450;2023-10-08T08:08:49;3.47;;;0.50;;
15938;SDS011;8068;51.322;9.450;2023-10-08T08:11:16;3.23;;;1.00;;
15938;SDS011;8068;51.322;9.450;2023-10-08T08:13:44;2.37;;;0.70;;
15938;SDS011;8068;51.322;9.450;2023-10-08T08:16:13;1.97;;;0.83;;
15938;SDS011;8068;51.322;9.450;2023-10-08T08:21:11;2.80;;;0.70;;
15938;SDS011;8068;51.322;9.450;2023-10-08T08:23:45;1.40;;;0.80;;
15938;SDS011;8068;51.322;9.450;2023-10-08T08:26:16;2.03;;;0.80;;
15938;SDS011;8068;51.322;9.450;2023-10-08T08:28:56;1.80;;;0.90;;
15938;SDS011;8068;51.322;9.450;2023-10-08T08:31:27;1.70;;;1.20;;
15938;SDS011;8068;51.322;9.450;2023-10-08T08:33:58;4.33;;;1.80;;
15938;SDS011;8068;51.322;9.450;2023-10-08T08:36:30;1.80;;;1.00;;
15938;SDS011;8068;51.322;9.450;2023-10-08T08:38:58;3.97;;;0.93;;
15938;SDS011;8068;51.322;9.450;2023-10-08T08:41:25;6.73;;;0.93;;
15938;SDS011;8068;51.322;9.450;2023-10-08T08:43:52;1.87;;;1.00;;
15938;SDS011;8068;51.322;9.450;2023-10-08T08:46:30;3.00;;;0.70;;
15938;SDS011;8068;51.322;9.450;2023-10-08T08:49:02;4.60;;;1.00;;
15938;SDS011;8068;51.322;9.450;2023-10-08T08:51:31;1.70;;;1.20;;
15938;SDS011;8068;51.322;9.450;2023-10-08T08:53:58;3.73;;;1.30;;
15938;SDS011;8068;51.322;9.450;2023-10-08T08:56:28;4.23;;;1.00;;
15938;SDS011;8068;51.322;9.450;2023-10-08T08:58:56;4.70;;;0.80;;
15938;SDS011;8068;51.322;9.450;2023-10-08T09:01:25;2.90;;;0.70;;
15938;SDS011;8068;51.322;9.450;2023-10-08T09:03:58;1.20;;;0.97;;
15938;SDS011;8068;51.322;9.450;2023-10-08T09:06:28;3.93;;;1.10;;
15938;SDS011;8068;51.322;9.450;2023-10-08T09:08:54;1.87;;;0.80;;
15938;SDS011;8068;51.322;9.450;2023-10-08T09:11:39;1.10;;;0.80;;
15938;SDS011;8068;51.322;9.450;2023-10-08T09:14:09;1.30;;;0.97;;
15938;SDS011;8068;51.322;9.450;2023-10-08T09:16:39;1.60;;;0.97;;
15938;SDS011;8068;51.322;9.450;2023-10-08T09:19:06;1.40;;;0.93;;
15938;SDS011;8068;51.322;9.450;2023-10-08T09:21:38;1.53;;;0.80;;
15938;SDS011;8068;51.322;9.450;2023-10-08T09:24:06;2.60;;;1.00;;
15938;SDS011;8068;51.322;9.450;2023-10-08T09:26:37;2.23;;;0.70;;
15938;SDS011;8068;51.322;9.450;2023-10-08T09:29:04;1.83;;;0.90;;
15938;SDS011;8068;51.322;9.450;2023-10-08T09:31:31;5.80;;;1.00;;
15938;SDS011;8068;51.322;9.450;2023-10-08T09:34:03;1.77;;;0.90;;
15938;SDS011;8068;51.322;9.450;2023-10-08T09:36:30;3.97;;;0.93;;
15938;SDS011;8068;51.322;9.450;2023-10-08T09:39:02;4.07;;;0.90;;
15938;SDS011;8068;51.322;9.450;2023-10-08T09:41:31;1.70;;;1.10;;
15938;SDS011;8068;51.322;9.450;2023-10-08T09:43:59;5.07;;;1.20;;
15938;SDS011;8068;51.322;9.450;2023-10-08T09:46:29;1.97;;;1.00;;
15938;SDS011;8068;51.322;9.450;2023-10-08T09:48:59;3.30;;;1.07;;
15938;SDS011;8068;51.322;9.450;2023-10-08T09:51:28;1.30;;;0.87;;
15938;SDS011;8068;51.322;9.450;2023-10-08T09:54:00;4.50;;;1.10;;
15938;SDS011;8068;51.322;9.450;2023-10-08T09:56:37;1.40;;;0.90;;
15938;SDS011;8068;51.322;9.450;2023-10-08T09:59:06;4.00;;;1.20;;
15938;SDS011;8068;51.322;9.450;2023-10-08T10:01:37;1.63;;;0.60;;
15938;SDS011;8068;51.322;9.450;2023-10-08T10:04:06;2.17;;;0.90;;
15938;SDS011;8068;51.322;9.450;2023-10-08T10:06:36;1.83;;;0.70;;
15938;SDS011;8068;51.322;9.450;2023-10-08T10:09:04;2.20;;;1.23;;
15938;SDS011;8068;51.322;9.450;2023-10-08T10:11:48;3.10;;;1.20;;
15938;SDS011;8068;51.322;9.450;2023-10-08T10:14:16;1.83;;;1.03;;
15938;SDS011;8068;51.322;9.450;2023-10-08T10:17:05;2.73;;;0.93;;
15938;SDS011;8068;51.322;9.450;2023-10-08T10:19:35;3.03;;;0.80;;
15938;SDS011;8068;51.322;9.450;2023-10-08T10:22:02;3.50;;;0.70;;
15938;SDS011;8068;51.322;9.450;2023-10-08T10:24:33;2.63;;;0.80;;
15938;SDS011;8068;51.322;9.450;2023-10-08T10:27:09;2.00;;;0.70;;
15938;SDS011;8068;51.322;9.450;2023-10-08T10:29:44;1.70;;;0.77;;
15938;SDS011;8068;51.322;9.450;2023-10-08T10:32:12;2.43;;;1.20;;
15938;SDS011;8068;51.322;9.450;2023-10-08T10:34:42;2.00;;;1.50;;
15938;SDS011;8068;51.322;9.450;2023-10-08T10:37:10;2.03;;;1.13;;
15938;SDS011;8068;51.322;9.450;2023-10-08T10:39:53;2.33;;;0.87;;
15938;SDS011;8068;51.322;9.450;2023-10-08T10:42:27;3.60;;;2.90;;
15938;SDS011;8068;51.322;9.450;2023-10-08T10:44:55;5.73;;;1.00;;
15938;SDS011;8068;51.322;9.450;2023-10-08T10:47:23;2.17;;;0.90;;
15938;SDS011;8068;51.322;9.450;2023-10-08T10:49:54;5.23;;;1.10;;
15938;SDS011;8068;51.322;9.450;2023-10-08T10:52:50;2.80;;;1.00;;
15938;SDS011;8068;51.322;9.450;2023-10-08T10:55:17;4.60;;;1.40;;
15938;SDS011;8068;51.322;9.450;2023-10-08T10:57:48;4.63;;;1.00;;
15938;SDS011;8068;51.322;9.450;2023-10-08T11:00:24;2.13;;;0.90;;
15938;SDS011;8068;51.322;9.450;2023-10-08T11:03:01;1.53;;;0.80;;
15938;SDS011;8068;51.322;9.450;2023-10-08T11:05:50;1.60;;;1.47;;
15938;SDS011;8068;51.322;9.450;2023-10-08T11:08:26;4.27;;;1.43;;
15938;SDS011;8068;51.322;9.450;2023-10-08T11:11:01;10.40;;;6.20;;
15938;SDS011;8068;51.322;9.450;2023-10-08T11:13:32;2.33;;;1.30;;
15938;SDS011;8068;51.322;9.450;2023-10-08T11:16:07;3.37;;;1.23;;
15938;SDS011;8068;51.322;9.450;2023-10-08T11:18:42;1.37;;;0.80;;
15938;SDS011;8068;51.322;9.450;2023-10-08T11:21:10;7.73;;;0.90;;
15938;SDS011;8068;51.322;9.450;2023-10-08T11:23:47;3.73;;;1.00;;
15938;SDS011;8068;51.322;9.450;2023-10-08T11:26:36;1.17;;;0.70;;
15938;SDS011;8068;51.322;9.450;2023-10-08T11:29:06;2.13;;;1.20;;
15938;SDS011;8068;51.322;9.450;2023-10-08T11:31:41;1.20;;;0.70;;
15938;SDS011;8068;51.322;9.450;2023-10-08T11:34:10;2.50;;;1.70;;
15938;SDS011;8068;51.322;9.450;2023-10-08T11:36:40;2.00;;;0.93;;
15938;SDS011;8068;51.322;9.450;2023-10-08T11:39:20;1.40;;;1.17;;
15938;SDS011;8068;51.322;9.450;2023-10-08T11:44:33;5.40;;;1.27;;
15938;SDS011;8068;51.322;9.450;2023-10-08T11:47:04;1.30;;;0.90;;
15938;SDS011;8068;51.322;9.450;2023-10-08T11:49:38;2.20;;;1.00;;
15938;SDS011;8068;51.322;9.450;2023-10-08T11:52:14;1.70;;;0.97;;
15938;SDS011;8068;51.322;9.450;2023-10-08T11:54:48;1.80;;;1.00;;
15938;SDS011;8068;51.322;9.450;2023-10-08T11:57:15;2.37;;;1.00;;
15938;SDS011;8068;51.322;9.450;2023-10-08T11:59:49;2.57;;;0.97;;
15938;SDS011;8068;51.322;9.450;2023-10-08T12:02:19;5.33;;;1.23;;
15938;SDS011;8068;51.322;9.450;2023-10-08T12:04:47;2.70;;;0.90;;
15938;SDS011;8068;51.322;9.450;2023-10-08T12:07:15;5.80;;;1.00;;
15938;SDS011;8068;51.322;9.450;2023-10-08T12:09:44;1.30;;;0.80;;
15938;SDS011;8068;51.322;9.450;2023-10-08T12:12:15;2.33;;;1.00;;
15938;SDS011;8068;51.322;9.450;2023-10-08T12:14:45;2.70;;;1.10;;
15938;SDS011;8068;51.322;9.450;2023-10-08T12:17:14;8.33;;;1.00;;
15938;SDS011;8068;51.322;9.450;2023-10-08T12:19:43;5.27;;;1.60;;
15938;SDS011;8068;51.322;9.450;2023-10-08T12:22:11;5.07;;;1.30;;
15938;SDS011;8068;51.322;9.450;2023-10-08T12:24:44;1.90;;;0.93;;
15938;SDS011;8068;51.322;9.450;2023-10-08T12:27:11;3.60;;;1.33;;
15938;SDS011;8068;51.322;9.450;2023-10-08T12:29:39;1.97;;;1.03;;
15938;SDS011;8068;51.322;9.450;2023-10-08T12:32:06;3.23;;;1.07;;
15938;SDS011;8068;51.322;9.450;2023-10-08T12:34:44;2.33;;;1.40;;
15938;SDS011;8068;51.322;9.450;2023-10-08T12:37:11;11.10;;;1.40;;
15938;SDS011;8068;51.322;9.450;2023-10-08T12:39:41;5.17;;;1.40;;
15938;SDS011;8068;51.322;9.450;2023-10-08T12:42:19;2.73;;;1.40;;
15938;SDS011;8068;51.322;9.450;2023-10-08T12:44:47;2.90;;;1.53;;
15938;SDS011;8068;51.322;9.450;2023-10-08T12:47:15;1.87;;;1.07;;
15938;SDS011;8068;51.322;9.450;2023-10-08T12:49:42;2.87;;;1.10;;
15938;SDS011;8068;51.322;9.450;2023-10-08T12:52:11;2.70;;;1.17;;
15938;SDS011;8068;51.322;9.450;2023-10-08T12:54:41;2.30;;;1.13;;
15938;SDS011;8068;51.322;9.450;2023-10-08T12:57:12;4.27;;;1.33;;
15938;SDS011;8068;51.322;9.450;2023-10-08T12:59:43;1.53;;;1.03;;
15938;SDS011;8068;51.322;9.450;2023-10-08T13:02:15;1.80;;;0.93;;
15938;SDS011;8068;51.322;9.450;2023-10-08T13:04:43;7.10;;;1.13;;
15938;SDS011;8068;51.322;9.450;2023-10-08T13:07:12;2.37;;;1.10;;
15938;SDS011;8068;51.322;9.450;2023-10-08T13:09:40;2.43;;;1.27;;
15938;SDS011;8068;51.322;9.450;2023-10-08T13:12:09;3.80;;;1.30;;
15938;SDS011;8068;51.322;9.450;2023-10-08T13:14:37;2.80;;;1.37;;
15938;SDS011;8068;51.322;9.450;2023-10-08T13:17:04;4.53;;;1.17;;
15938;SDS011;8068;51.322;9.450;2023-10-08T13:19:31;2.80;;;1.27;;
15938;SDS011;8068;51.322;9.450;2023-10-08T13:22:01;3.20;;;1.43;;
15938;SDS011;8068;51.322;9.450;2023-10-08T13:24:29;1.20;;;0.70;;
15938;SDS011;8068;51.322;9.450;2023-10-08T13:26:56;1.50;;;1.37;;
15938;SDS011;8068;51.322;9.450;2023-10-08T13:29:25;3.27;;;1.10;;
15938;SDS011;8068;51.322;9.450;2023-10-08T13:32:00;4.83;;;1.30;;
15938;SDS011;8068;51.322;9.450;2023-10-08T13:34:27;1.20;;;0.60;;
15938;SDS011;8068;51.322;9.450;2023-10-08T13:36:54;1.60;;;1.10;;
15938;SDS011;8068;51.322;9.450;2023-10-08T13:39:23;3.13;;;0.90;;
15938;SDS011;8068;51.322;9.450;2023-10-08T13:41:49;2.73;;;1.30;;
15938;SDS011;8068;51.322;9.450;2023-10-08T13:44:19;2.93;;;1.00;;
15938;SDS011;8068;51.322;9.450;2023-10-08T13:46:56;1.63;;;1.00;;
15938;SDS011;8068;51.322;9.450;2023-10-08T13:49:25;2.63;;;1.00;;
15938;SDS011;8068;51.322;9.450;2023-10-08T13:51:53;1.50;;;1.10;;
15938;SDS011;8068;51.322;9.450;2023-10-08T13:54:24;1.70;;;1.00;;
15938;SDS011;8068;51.322;9.450;2023-10-08T13:56:57;4.67;;;0.90;;
15938;SDS011;8068;51.322;9.450;2023-10-08T13:59:26;2.80;;;0.90;;
15938;SDS011;8068;51.322;9.450;2023-10-08T14:01:53;3.37;;;1.70;;
15938;SDS011;8068;51.322;9.450;2023-10-08T14:04:21;3.40;;;0.93;;
15938;SDS011;8068;51.322;9.450;2023-10-08T14:06:57;6.90;;;1.20;;
15938;SDS011;8068;51.322;9.450;2023-10-08T14:09:25;1.93;;;1.30;;
15938;SDS011;8068;51.322;9.450;2023-10-08T14:11:59;2.80;;;0.83;;
15938;SDS011;8068;51.322;9.450;2023-10-08T14:14:27;5.47;;;1.13;;
15938;SDS011;8068;51.322;9.450;2023-10-08T14:17:00;2.40;;;1.13;;
15938;SDS011;8068;51.322;9.450;2023-10-08T14:19:36;2.53;;;1.20;;
15938;SDS011;8068;51.322;9.450;2023-10-08T14:22:13;3.00;;;1.20;;
15938;SDS011;8068;51.322;9.450;2023-10-08T14:24:43;1.70;;;0.83;;
15938;SDS011;8068;51.322;9.450;2023-10-08T14:27:13;1.70;;;0.90;;
15938;SDS011;8068;51.322;9.450;2023-10-08T14:29:43;1.90;;;1.23;;
15938;SDS011;8068;51.322;9.450;2023-10-08T14:32:17;1.80;;;0.93;;
15938;SDS011;8068;51.322;9.450;2023-10-08T14:34:44;1.40;;;0.70;;
15938;SDS011;8068;51.322;9.450;2023-10-08T14:37:14;1.80;;;1.00;;
15938;SDS011;8068;51.322;9.450;2023-10-08T14:40:01;3.70;;;1.10;;
15938;SDS011;8068;51.322;9.450;2023-10-08T14:42:52;1.20;;;0.70;;
15938;SDS011;8068;51.322;9.450;2023-10-08T14:45:36;3.13;;;0.80;;
15938;SDS011;8068;51.322;9.450;2023-10-08T14:48:04;1.40;;;0.83;;
15938;SDS011;8068;51.322;9.450;2023-10-08T14:50:39;2.50;;;1.10;;
15938;SDS011;8068;51.322;9.450;2023-10-08T14:53:07;2.20;;;0.87;;
15938;SDS011;8068;51.322;9.450;2023-10-08T14:55:37;1.20;;;0.80;;
15938;SDS011;8068;51.322;9.450;2023-10-08T14:58:07;3.10;;;1.17;;
15938;SDS011;8068;51.322;9.450;2023-10-08T15:00:41;1.20;;;0.60;;
15938;SDS011;8068;51.322;9.450;2023-10-08T15:03:09;2.53;;;1.00;;
15938;SDS011;8068;51.322;9.450;2023-10-08T15:05:39;4.80;;;0.93;;
15938;SDS011;8068;51.322;9.450;2023-10-08T15:08:07;1.30;;;0.90;;
15938;SDS011;8068;51.322;9.450;2023-10-08T15:10:38;1.73;;;0.87;;
15938;SDS011;8068;51.322;9.450;2023-10-08T15:13:09;1.97;;;0.90;;
15938;SDS011;8068;51.322;9.450;2023-10-08T15:16:00;1.70;;;0.90;;
15938;SDS011;8068;51.322;9.450;2023-10-08T15:18:34;3.40;;;0.80;;
15938;SDS011;8068;51.322;9.450;2023-10-08T15:21:15;1.60;;;1.07;;
15938;SDS011;8068;51.322;9.450;2023-10-08T15:23:45;1.30;;;0.90;;
15938;SDS011;8068;51.322;9.450;2023-10-08T15:26:16;1.50;;;0.70;;
15938;SDS011;8068;51.322;9.450;2023-10-08T15:28:46;1.30;;;0.97;;
15938;SDS011;8068;51.322;9.450;2023-10-08T15:31:14;1.73;;;1.20;;
15938;SDS011;8068;51.322;9.450;2023-10-08T15:33:42;4.33;;;0.90;;